Time;durP1;ratioP1;P1;durP2;ratioP2;P2;SDS_P1;SDS_P2;PMS_P1;PMS_P2;Temp;Humidity;BMP_temperature;BMP_pressure;BME280_temperature;BME280_humidity;BME280_pressure;Samples;Min_cycle;Max_cycle;Signal;HPM_P1;HPM_P2
2023/04/16 00:00:47;;;;;;;202.23;59.43;;;7.50;81.00;;;;;;5052118;28;20121;-75
2023/04/16 00:03:13;;;;;;;208.93;57.67;;;7.50;81.00;;;;;;5068995;28;20437;-77
2023/04/16 00:05:39;;;;;;;210.60;58.50;;;7.50;81.00;;;;;;5070240;28;20044;-78
2023/04/16 00:08:05;;;;;;;205.27;59.67;;;7.50;80.90;;;;;;5054253;28;20071;-78
2023/04/16 00:10:31;;;;;;;211.90;59.83;;;7.50;80.90;;;;;;5070621;28;20387;-78
2023/04/16 00:12:56;;;;;;;218.60;59.40;;;7.50;81.00;;;;;;5069643;28;20048;-78
2023/04/16 00:15:22;;;;;;;215.80;59.90;;;7.50;80.90;;;;;;5051883;28;20044;-77
2023/04/16 00:17:48;;;;;;;221.00;59.83;;;7.50;81.00;;;;;;5046676;28;20079;-77
2023/04/16 00:20:13;;;;;;;224.53;60.40;;;7.50;80.90;;;;;;5063988;28;20037;-78
2023/04/16 00:22:39;;;;;;;229.20;63.40;;;7.50;81.00;;;;;;5049153;28;20056;-78
2023/04/16 00:25:05;;;;;;;212.97;60.80;;;7.50;81.10;;;;;;5049501;28;20400;-78
2023/04/16 00:27:31;;;;;;;206.87;58.83;;;7.50;81.00;;;;;;5032237;28;20036;-78
2023/04/16 00:29:56;;;;;;;177.17;55.73;;;7.50;81.00;;;;;;5050015;28;20045;-78
2023/04/16 00:32:22;;;;;;;189.60;57.07;;;7.50;81.00;;;;;;5052902;28;20048;-77
2023/04/16 00:34:48;;;;;;;196.67;57.53;;;7.50;81.00;;;;;;5069313;28;20044;-76
2023/04/16 00:37:13;;;;;;;173.83;55.63;;;7.50;81.00;;;;;;5054114;28;20072;-77
2023/04/16 00:39:39;;;;;;;172.23;56.23;;;7.50;80.90;;;;;;5069393;28;20345;-77
2023/04/16 00:42:05;;;;;;;199.13;56.77;;;7.50;80.90;;;;;;5050517;28;20262;-77
2023/04/16 00:44:33;;;;;;;198.87;56.70;;;7.50;81.00;;;;;;5052322;28;20037;-78
2023/04/16 00:47:00;;;;;;;190.77;56.43;;;7.50;81.00;;;;;;5053840;28;20068;-77
2023/04/16 00:49:26;;;;;;;185.90;56.83;;;7.40;81.00;;;;;;5046746;28;20070;-78
2023/04/16 00:51:51;;;;;;;176.03;56.20;;;7.40;81.00;;;;;;5048241;28;20049;-78
2023/04/16 00:54:18;;;;;;;196.67;58.17;;;7.40;81.10;;;;;;5050848;28;20106;-78
2023/04/16 00:56:43;;;;;;;175.07;56.57;;;7.40;81.10;;;;;;5052753;28;20036;-77
2023/04/16 00:59:09;;;;;;;177.23;55.57;;;7.40;81.10;;;;;;5068115;28;20040;-78
2023/04/16 01:01:35;;;;;;;179.27;55.43;;;7.40;81.10;;;;;;5069640;28;20105;-77
2023/04/16 01:04:01;;;;;;;176.53;57.47;;;7.40;81.00;;;;;;5050371;28;20044;-76
2023/04/16 01:06:27;;;;;;;195.37;59.70;;;7.40;81.10;;;;;;5038559;28;20557;-77
2023/04/16 01:08:52;;;;;;;175.37;58.50;;;7.40;81.10;;;;;;5036489;28;20041;-76
2023/04/16 01:11:18;;;;;;;184.33;58.63;;;7.30;81.00;;;;;;5048511;28;20040;-78
2023/04/16 01:13:44;;;;;;;190.43;60.43;;;7.40;81.10;;;;;;5047359;28;20124;-78
2023/04/16 01:16:11;;;;;;;202.90;60.67;;;7.30;81.10;;;;;;5040083;28;20041;-77
2023/04/16 01:18:37;;;;;;;209.00;60.67;;;7.40;81.00;;;;;;5049578;28;20045;-74
2023/04/16 01:21:04;;;;;;;209.40;59.83;;;7.40;81.20;;;;;;5031920;28;20041;-77
2023/04/16 01:23:30;;;;;;;236.00;62.93;;;7.40;81.10;;;;;;5048541;28;20476;-77
2023/04/16 01:25:56;;;;;;;208.77;62.73;;;7.40;81.10;;;;;;5047444;28;20049;-77
2023/04/16 01:28:22;;;;;;;219.17;63.90;;;7.40;81.00;;;;;;5033376;28;20040;-77
2023/04/16 01:30:48;;;;;;;228.87;63.73;;;7.40;81.10;;;;;;5055242;28;20433;-78
2023/04/16 01:33:14;;;;;;;247.87;66.00;;;7.30;81.10;;;;;;5067585;28;20039;-78
2023/04/16 01:35:40;;;;;;;236.43;64.33;;;7.30;81.10;;;;;;5069808;28;20037;-77
2023/04/16 01:38:07;;;;;;;249.53;65.83;;;7.30;81.20;;;;;;5039573;28;20495;-78
2023/04/16 01:40:34;;;;;;;256.07;68.63;;;7.30;81.20;;;;;;5071835;28;20040;-78
2023/04/16 01:43:00;;;;;;;234.93;65.17;;;7.30;81.10;;;;;;5054664;28;20129;-78
2023/04/16 01:45:25;;;;;;;237.30;66.60;;;7.40;81.20;;;;;;5072775;28;20079;-78
2023/04/16 01:47:51;;;;;;;262.20;70.30;;;7.30;81.20;;;;;;5034466;28;20048;-77
2023/04/16 01:50:19;;;;;;;240.43;66.93;;;7.30;81.20;;;;;;5051931;28;20564;-77
2023/04/16 01:52:45;;;;;;;246.33;69.03;;;7.30;81.20;;;;;;5034378;28;20037;-78
2023/04/16 01:55:11;;;;;;;223.53;69.13;;;7.30;81.20;;;;;;5060120;28;20044;-77
2023/04/16 01:57:37;;;;;;;245.23;69.77;;;7.30;81.20;;;;;;5038297;28;20056;-76
2023/04/16 02:00:03;;;;;;;247.10;69.73;;;7.30;81.20;;;;;;5073319;28;20048;-77
2023/04/16 02:02:30;;;;;;;242.73;68.93;;;7.30;81.20;;;;;;5037393;28;20045;-76
2023/04/16 02:04:56;;;;;;;249.47;68.33;;;7.30;81.20;;;;;;5072860;28;20433;-77
2023/04/16 02:07:23;;;;;;;217.37;66.40;;;7.30;81.30;;;;;;5038209;28;26323;-77
2023/04/16 02:09:51;;;;;;;226.23;66.13;;;7.40;81.20;;;;;;5060451;28;20037;-78
2023/04/16 02:12:17;;;;;;;205.40;63.60;;;7.30;81.30;;;;;;5051525;28;20458;-77
2023/04/16 02:14:43;;;;;;;226.67;63.70;;;7.40;81.20;;;;;;5052678;28;20037;-77
2023/04/16 02:17:09;;;;;;;205.27;64.13;;;7.30;81.20;;;;;;5046674;28;20035;-77
2023/04/16 02:19:35;;;;;;;222.73;63.43;;;7.30;81.20;;;;;;5060609;28;20037;-78
2023/04/16 02:22:01;;;;;;;213.87;64.37;;;7.30;81.30;;;;;;5052444;28;20371;-77
2023/04/16 02:24:27;;;;;;;236.70;66.83;;;7.30;81.20;;;;;;5051096;28;20045;-78
2023/04/16 02:26:53;;;;;;;232.07;65.90;;;7.30;81.20;;;;;;5035731;28;20518;-78
2023/04/16 02:29:20;;;;;;;267.87;66.83;;;7.30;81.20;;;;;;5051828;28;20052;-76
2023/04/16 02:31:45;;;;;;;241.57;68.30;;;7.30;81.30;;;;;;5053919;28;20540;-78
2023/04/16 02:34:12;;;;;;;242.07;67.00;;;7.20;81.30;;;;;;5055550;28;20135;-77
2023/04/16 02:36:38;;;;;;;228.63;65.27;;;7.30;81.30;;;;;;5055224;28;20078;-78
2023/04/16 02:39:04;;;;;;;216.90;65.47;;;7.20;81.20;;;;;;5048998;28;20092;-78
2023/04/16 02:41:29;;;;;;;211.03;63.33;;;7.20;81.20;;;;;;5052146;28;20040;-77
2023/04/16 02:43:55;;;;;;;199.90;62.40;;;7.20;81.30;;;;;;5051231;28;20131;-77
2023/04/16 02:46:21;;;;;;;203.93;59.90;;;7.20;81.30;;;;;;5039106;28;20052;-76
2023/04/16 02:48:47;;;;;;;183.77;57.23;;;7.20;81.20;;;;;;5060381;28;20036;-77
2023/04/16 02:51:12;;;;;;;174.87;57.10;;;7.20;81.20;;;;;;5068366;28;20040;-77
2023/04/16 02:53:38;;;;;;;177.50;57.00;;;7.30;81.20;;;;;;5052894;28;20518;-77
2023/04/16 02:56:05;;;;;;;193.37;55.80;;;7.30;81.30;;;;;;5071390;28;20050;-73
2023/04/16 02:58:31;;;;;;;210.07;55.17;;;7.30;81.20;;;;;;5060500;28;20048;-77
2023/04/16 03:00:57;;;;;;;199.57;55.90;;;7.20;81.30;;;;;;5071754;28;20585;-77
2023/04/16 03:03:23;;;;;;;219.10;55.03;;;7.20;81.20;;;;;;5068608;28;20364;-77
2023/04/16 03:05:48;;;;;;;197.37;54.80;;;7.20;81.20;;;;;;5071752;28;20067;-77
2023/04/16 03:08:14;;;;;;;199.97;55.73;;;7.20;81.30;;;;;;5036967;28;20048;-77
2023/04/16 03:10:40;;;;;;;205.90;57.17;;;7.20;81.20;;;;;;5071299;28;20040;-75
2023/04/16 03:13:06;;;;;;;203.73;55.93;;;7.20;81.20;;;;;;5070451;28;20509;-77
2023/04/16 03:15:32;;;;;;;207.97;56.70;;;7.20;81.20;;;;;;5037036;28;20064;-77
2023/04/16 03:17:58;;;;;;;217.27;56.67;;;7.20;81.20;;;;;;5067455;28;20146;-78
2023/04/16 03:20:24;;;;;;;210.07;55.40;;;7.20;81.20;;;;;;5057087;28;20479;-77
2023/04/16 03:22:53;;;;;;;187.70;53.27;;;7.20;81.20;;;;;;5050703;28;20051;-77
2023/04/16 03:25:19;;;;;;;193.47;54.33;;;7.20;81.20;;;;;;5050364;28;20041;-77
2023/04/16 03:27:45;;;;;;;195.40;54.20;;;7.20;81.20;;;;;;5033541;28;20041;-76
2023/04/16 03:30:12;;;;;;;204.50;53.67;;;7.20;81.10;;;;;;5051427;28;20043;-77
2023/04/16 03:32:38;;;;;;;198.87;55.73;;;7.20;81.10;;;;;;5070132;28;20454;-77
2023/04/16 03:35:05;;;;;;;188.33;54.50;;;7.20;81.20;;;;;;5071633;28;20079;-77
2023/04/16 03:37:31;;;;;;;192.07;53.57;;;7.20;81.20;;;;;;5021772;28;20048;-77
2023/04/16 03:39:57;;;;;;;199.57;54.50;;;7.20;81.20;;;;;;5070616;28;20094;-77
2023/04/16 03:42:23;;;;;;;183.67;54.03;;;7.10;81.20;;;;;;5069922;28;20072;-77
2023/04/16 03:44:48;;;;;;;208.30;55.77;;;7.10;81.20;;;;;;5071223;28;20238;-78
2023/04/16 03:47:14;;;;;;;195.57;52.73;;;7.10;81.20;;;;;;5048468;28;20045;-78
2023/04/16 03:49:40;;;;;;;199.43;53.50;;;7.00;81.20;;;;;;5070948;28;20068;-77
2023/04/16 03:52:06;;;;;;;207.87;53.33;;;7.00;81.20;;;;;;5070124;28;20040;-77
2023/04/16 03:54:31;;;;;;;190.77;52.17;;;7.00;81.20;;;;;;5060261;28;20379;-78
2023/04/16 03:56:57;;;;;;;201.33;51.47;;;7.00;81.20;;;;;;5041901;28;20036;-78
2023/04/16 03:59:23;;;;;;;187.70;49.37;;;7.00;81.20;;;;;;5070244;28;20044;-77
2023/04/16 04:01:48;;;;;;;179.40;49.50;;;7.00;81.20;;;;;;5070604;28;20131;-76
2023/04/16 04:04:14;;;;;;;174.97;49.10;;;7.00;81.20;;;;;;5069358;28;20036;-78
2023/04/16 04:06:40;;;;;;;173.07;46.63;;;7.00;81.30;;;;;;5038604;28;20907;-76
2023/04/16 04:09:06;;;;;;;163.13;46.80;;;7.00;81.20;;;;;;5035814;28;20045;-78
2023/04/16 04:11:31;;;;;;;168.90;44.83;;;7.00;81.20;;;;;;5050045;28;20084;-78
2023/04/16 04:13:57;;;;;;;151.73;44.73;;;7.00;81.20;;;;;;5049505;28;20410;-77
2023/04/16 04:16:23;;;;;;;129.30;42.47;;;7.00;81.10;;;;;;5049727;28;20729;-74
2023/04/16 04:18:49;;;;;;;146.80;44.23;;;7.00;81.10;;;;;;5028737;28;20044;-76
2023/04/16 04:21:14;;;;;;;157.57;45.50;;;7.00;81.10;;;;;;5046540;28;20045;-77
2023/04/16 04:23:41;;;;;;;145.27;43.63;;;7.00;81.10;;;;;;5066619;28;20064;-77
2023/04/16 04:26:07;;;;;;;149.83;46.17;;;6.90;81.10;;;;;;5061733;28;20056;-73
2023/04/16 04:28:34;;;;;;;155.77;45.47;;;7.00;81.10;;;;;;5050397;28;20059;-77
2023/04/16 04:31:00;;;;;;;163.53;44.27;;;7.00;81.10;;;;;;5069646;28;20032;-78
2023/04/16 04:33:26;;;;;;;166.40;44.83;;;6.90;81.10;;;;;;5067954;28;20044;-78
2023/04/16 04:35:52;;;;;;;165.30;43.30;;;6.90;81.10;;;;;;5069281;28;20048;-76
2023/04/16 04:38:18;;;;;;;156.10;43.40;;;6.90;81.20;;;;;;5039522;28;20497;-76
2023/04/16 04:40:44;;;;;;;171.43;43.53;;;6.90;81.20;;;;;;5035650;28;20040;-77
2023/04/16 04:43:10;;;;;;;169.27;46.10;;;6.90;81.20;;;;;;5051104;28;20055;-78
2023/04/16 04:45:36;;;;;;;163.10;45.50;;;7.00;81.20;;;;;;5069226;28;20048;-77
2023/04/16 04:48:01;;;;;;;196.17;46.67;;;6.90;81.20;;;;;;5024375;28;20849;-77
2023/04/16 04:50:27;;;;;;;178.10;45.57;;;6.90;81.20;;;;;;5043004;28;20045;-77
2023/04/16 04:52:53;;;;;;;184.03;47.57;;;7.00;81.20;;;;;;5058220;28;20064;-77
2023/04/16 04:55:18;;;;;;;194.20;46.40;;;7.00;81.20;;;;;;5069722;28;20048;-76
2023/04/16 04:57:44;;;;;;;197.37;46.77;;;7.00;81.30;;;;;;5040961;28;20097;-77
2023/04/16 05:00:10;;;;;;;204.63;49.33;;;7.00;81.20;;;;;;5051554;28;20475;-77
2023/04/16 05:02:36;;;;;;;193.20;49.00;;;7.00;81.20;;;;;;5050749;28;20065;-77
2023/04/16 05:05:02;;;;;;;190.33;46.17;;;7.00;81.20;;;;;;5051984;28;20127;-78
2023/04/16 05:07:28;;;;;;;183.67;47.63;;;7.00;81.20;;;;;;5040228;28;20685;-77
2023/04/16 05:09:54;;;;;;;203.67;48.50;;;7.00;81.30;;;;;;5069130;28;20061;-77
2023/04/16 05:12:19;;;;;;;207.43;47.80;;;7.00;81.40;;;;;;5046929;28;20048;-76
2023/04/16 05:14:45;;;;;;;199.00;48.57;;;7.00;81.40;;;;;;5051190;28;20053;-77
2023/04/16 05:17:11;;;;;;;200.77;47.27;;;7.00;81.40;;;;;;5059404;28;20066;-78
2023/04/16 05:19:36;;;;;;;184.37;48.00;;;7.00;81.40;;;;;;5052512;28;20052;-78
2023/04/16 05:22:02;;;;;;;216.27;52.10;;;7.10;81.40;;;;;;5048698;28;20048;-74
2023/04/16 05:24:28;;;;;;;239.60;60.23;;;7.10;81.50;;;;;;5048970;28;20048;-78
2023/04/16 05:26:55;;;;;;;212.27;58.17;;;7.20;81.50;;;;;;5034361;28;20095;-78
2023/04/16 05:29:21;;;;;;;203.27;53.17;;;7.20;81.50;;;;;;5049814;28;20534;-78
2023/04/16 05:31:46;;;;;;;223.67;51.57;;;7.20;81.40;;;;;;5066592;28;20056;-78
2023/04/16 05:34:12;;;;;;;189.13;47.10;;;7.20;81.50;;;;;;5063086;28;20064;-78
2023/04/16 05:36:38;;;;;;;168.43;44.03;;;7.20;81.40;;;;;;5037262;28;20098;-77
2023/04/16 05:39:03;;;;;;;168.93;43.87;;;7.30;81.40;;;;;;5066462;28;20480;-77
2023/04/16 05:41:29;;;;;;;190.33;44.83;;;7.30;81.50;;;;;;5068546;28;20053;-77
2023/04/16 05:43:55;;;;;;;151.37;42.37;;;7.40;81.50;;;;;;5049936;28;20147;-78
2023/04/16 05:46:21;;;;;;;184.27;44.87;;;7.40;81.50;;;;;;5056689;28;20060;-74
2023/04/16 05:48:46;;;;;;;178.20;43.73;;;7.40;81.50;;;;;;5036605;28;20037;-78
2023/04/16 05:51:12;;;;;;;147.47;40.80;;;7.50;81.50;;;;;;5056665;28;20076;-76
2023/04/16 05:53:37;;;;;;;170.13;41.90;;;7.50;81.50;;;;;;5064048;28;20056;-77
2023/04/16 05:56:03;;;;;;;162.37;41.83;;;7.50;81.50;;;;;;5052575;28;20055;-78
2023/04/16 05:58:29;;;;;;;174.13;42.50;;;7.50;81.50;;;;;;5030753;28;20124;-78
2023/04/16 06:00:55;;;;;;;153.03;41.63;;;7.60;81.60;;;;;;5047670;28;20498;-77
2023/04/16 06:03:21;;;;;;;141.97;40.83;;;7.70;81.60;;;;;;5067736;28;20388;-78
2023/04/16 06:05:46;;;;;;;146.67;40.00;;;7.80;81.70;;;;;;5058666;28;20052;-77
2023/04/16 06:08:12;;;;;;;135.63;41.17;;;7.80;81.60;;;;;;5042181;28;20055;-76
2023/04/16 06:10:38;;;;;;;135.33;40.40;;;7.90;81.60;;;;;;5062195;28;20454;-76
2023/04/16 06:13:04;;;;;;;116.60;38.70;;;8.00;81.50;;;;;;5067105;28;20064;-77
2023/04/16 06:15:30;;;;;;;122.07;40.50;;;8.00;81.50;;;;;;5068110;28;20072;-76
2023/04/16 06:17:56;;;;;;;122.73;40.77;;;8.10;81.50;;;;;;5063477;28;20056;-77
2023/04/16 06:20:22;;;;;;;112.70;39.57;;;8.20;81.60;;;;;;5052552;28;20049;-78
2023/04/16 06:22:48;;;;;;;123.73;40.90;;;8.30;81.50;;;;;;5050818;28;20461;-76
2023/04/16 06:25:14;;;;;;;110.70;38.30;;;8.40;81.30;;;;;;5071461;28;20044;-77
2023/04/16 06:27:40;;;;;;;122.07;37.70;;;8.40;81.20;;;;;;5055141;28;20052;-76
2023/04/16 06:30:11;;;;;;;88.90;34.97;;;8.50;81.10;;;;;;5071720;28;20048;-78
2023/04/16 06:32:37;;;;;;;;;;;8.50;81.10;;;;;;5071509;28;20079;-78
2023/04/16 06:35:03;;;;;;;93.70;33.57;;;8.40;80.70;;;;;;5072129;28;20371;-77
2023/04/16 06:37:28;;;;;;;90.17;33.87;;;8.40;80.80;;;;;;5056692;28;20143;-78
2023/04/16 06:39:54;;;;;;;88.73;32.13;;;8.40;80.70;;;;;;5071785;28;20593;-78
2023/04/16 06:42:20;;;;;;;94.80;32.33;;;8.30;80.70;;;;;;5071365;28;20194;-77
2023/04/16 06:44:46;;;;;;;92.80;31.90;;;8.30;80.60;;;;;;5071831;28;20112;-78
2023/04/16 06:47:12;;;;;;;86.57;32.23;;;8.20;80.70;;;;;;5048015;28;20059;-76
2023/04/16 06:49:38;;;;;;;87.87;32.80;;;8.20;80.70;;;;;;5071796;28;20048;-76
2023/04/16 06:52:04;;;;;;;81.80;31.13;;;8.30;80.70;;;;;;5071308;28;20118;-78
2023/04/16 06:54:31;;;;;;;85.30;31.37;;;8.30;80.70;;;;;;5042942;28;20041;-76
2023/04/16 06:56:57;;;;;;;86.37;29.93;;;8.30;80.70;;;;;;5021669;28;20048;-76
2023/04/16 06:59:22;;;;;;;81.87;30.70;;;8.40;80.70;;;;;;5015809;28;20041;-77
2023/04/16 07:01:48;;;;;;;82.10;31.13;;;8.40;80.70;;;;;;5064477;28;20048;-78
2023/04/16 07:04:14;;;;;;;81.83;32.40;;;8.40;80.70;;;;;;5052633;28;20116;-77
2023/04/16 07:06:40;;;;;;;78.73;31.43;;;8.50;80.80;;;;;;5039266;28;20669;-77
2023/04/16 07:09:05;;;;;;;82.83;30.00;;;8.60;80.80;;;;;;5052301;28;20128;-76
2023/04/16 07:11:31;;;;;;;90.57;31.80;;;8.80;80.90;;;;;;5052400;28;20475;-77
2023/04/16 07:13:57;;;;;;;76.53;31.10;;;8.90;80.80;;;;;;5052389;28;20503;-77
2023/04/16 07:16:23;;;;;;;75.70;29.63;;;9.00;80.70;;;;;;5038406;28;20048;-77
2023/04/16 07:18:49;;;;;;;79.10;30.83;;;9.10;80.70;;;;;;5066067;28;20411;-78
2023/04/16 07:21:15;;;;;;;71.83;29.00;;;9.20;80.70;;;;;;5070646;28;20051;-77
2023/04/16 07:23:40;;;;;;;69.00;26.03;;;9.40;80.70;;;;;;5069938;28;20056;-78
2023/04/16 07:26:06;;;;;;;62.27;27.00;;;9.40;80.70;;;;;;5032166;28;20056;-76
2023/04/16 07:28:32;;;;;;;71.30;27.40;;;9.60;80.50;;;;;;5026713;28;20044;-77
2023/04/16 07:30:58;;;;;;;71.00;26.70;;;9.60;80.50;;;;;;5052929;28;20145;-76
2023/04/16 07:33:23;;;;;;;62.60;24.93;;;9.80;80.40;;;;;;5064843;28;20041;-77
2023/04/16 07:35:50;;;;;;;57.57;25.37;;;9.80;80.00;;;;;;5050944;28;20048;-77
2023/04/16 07:38:15;;;;;;;61.57;25.60;;;9.90;79.90;;;;;;5035780;28;20049;-78
2023/04/16 07:40:41;;;;;;;70.70;24.63;;;10.00;79.80;;;;;;5049485;28;20110;-77
2023/04/16 07:43:07;;;;;;;67.00;25.67;;;10.00;79.80;;;;;;5050596;28;20037;-79
2023/04/16 07:45:33;;;;;;;60.97;25.67;;;10.20;79.90;;;;;;5032787;28;20133;-78
2023/04/16 07:47:59;;;;;;;51.47;24.40;;;10.30;79.70;;;;;;5035790;28;20074;-78
2023/04/16 07:50:24;;;;;;;63.73;24.00;;;10.40;79.50;;;;;;5070588;28;20055;-78
2023/04/16 07:52:50;;;;;;;46.30;22.30;;;10.40;79.30;;;;;;5069266;28;20173;-78
2023/04/16 07:55:16;;;;;;;49.57;23.70;;;10.50;79.20;;;;;;5059245;28;20123;-78
2023/04/16 07:57:41;;;;;;;42.67;22.70;;;10.70;79.20;;;;;;5046927;28;20407;-78
2023/04/16 08:00:08;;;;;;;57.37;23.10;;;10.80;78.90;;;;;;5036350;28;20048;-79
2023/04/16 08:02:34;;;;;;;53.60;22.33;;;10.90;78.90;;;;;;5069329;28;20044;-77
2023/04/16 08:05:00;;;;;;;55.77;22.67;;;11.10;78.70;;;;;;5070857;28;20041;-78
2023/04/16 08:07:25;;;;;;;51.10;23.10;;;11.10;78.50;;;;;;5053879;28;20052;-78
2023/04/16 08:09:52;;;;;;;47.30;22.63;;;11.30;78.50;;;;;;5057521;28;20543;-78
2023/04/16 08:12:18;;;;;;;48.50;22.03;;;11.40;78.20;;;;;;5066779;28;20051;-78
2023/04/16 08:14:45;;;;;;;45.67;22.37;;;11.50;78.00;;;;;;5055838;28;20036;-78
2023/04/16 08:17:11;;;;;;;49.57;21.90;;;11.70;78.00;;;;;;5011882;28;20051;-78
2023/04/16 08:19:37;;;;;;;48.13;21.70;;;11.70;77.70;;;;;;5055779;28;20469;-76
2023/04/16 08:22:03;;;;;;;49.70;21.90;;;11.70;77.50;;;;;;5052765;28;20142;-76
2023/04/16 08:24:29;;;;;;;48.80;20.97;;;11.70;77.40;;;;;;5059180;28;20514;-75
2023/04/16 08:26:54;;;;;;;40.90;21.02;;;11.70;77.20;;;;;;5005761;28;20116;-78
2023/04/16 08:29:20;;;;;;;53.17;22.98;;;11.70;77.20;;;;;;5055223;28;20080;-78
2023/04/16 08:31:46;;;;;;;48.55;21.60;;;11.70;77.00;;;;;;5043682;28;20479;-77
2023/04/16 08:34:12;;;;;;;45.00;21.13;;;11.80;77.00;;;;;;5057486;28;20044;-77
2023/04/16 08:36:40;;;;;;;54.83;22.08;;;11.90;76.70;;;;;;5017877;28;20131;-75
2023/04/16 08:39:05;;;;;;;45.60;21.13;;;11.90;76.70;;;;;;5043874;28;20115;-79
2023/04/16 08:41:35;;;;;;;60.75;22.08;;;12.00;76.80;;;;;;5063254;28;20625;-79
2023/04/16 08:44:12;;;;;;;52.20;22.58;;;12.20;76.70;;;;;;5060332;28;20037;-79
2023/04/16 08:46:40;;;;;;;51.40;21.83;;;12.30;76.50;;;;;;5053489;28;20356;-77
2023/04/16 08:49:06;;;;;;;53.03;22.25;;;12.50;76.30;;;;;;5062693;28;20064;-79
2023/04/16 08:51:35;;;;;;;56.17;21.63;;;12.50;76.20;;;;;;5032212;28;20116;-78
2023/04/16 08:54:11;;;;;;;49.40;21.00;;;12.50;76.10;;;;;;5058924;28;20033;-78
2023/04/16 08:56:40;;;;;;;53.05;21.40;;;12.60;75.90;;;;;;5047032;28;20036;-78
2023/04/16 08:59:06;;;;;;;51.70;19.88;;;12.70;75.90;;;;;;5063952;28;20050;-77
2023/04/16 09:01:32;;;;;;;47.67;20.20;;;12.70;75.60;;;;;;5065649;28;20049;-76
2023/04/16 09:04:02;;;;;;;46.40;19.52;;;12.70;75.50;;;;;;5054274;28;20048;-78
2023/04/16 09:06:30;;;;;;;37.65;18.73;;;12.80;75.30;;;;;;5046832;28;20048;-78
2023/04/16 09:08:58;;;;;;;42.05;18.77;;;12.80;75.20;;;;;;5038945;28;20045;-78
2023/04/16 09:11:24;;;;;;;45.70;20.23;;;12.80;74.70;;;;;;5061495;28;20043;-78
2023/04/16 09:13:51;;;;;;;49.15;20.70;;;12.70;74.50;;;;;;5061473;28;20105;-77
2023/04/16 09:16:17;;;;;;;46.20;20.33;;;12.70;74.80;;;;;;5048659;28;20096;-77
2023/04/16 09:18:43;;;;;;;51.38;20.85;;;12.70;75.00;;;;;;5048408;28;20051;-77
2023/04/16 09:21:09;;;;;;;54.05;20.67;;;12.70;74.80;;;;;;5041010;28;20119;-78
2023/04/16 09:23:37;;;;;;;53.05;21.33;;;12.80;74.80;;;;;;5047796;28;20037;-76
2023/04/16 09:26:04;;;;;;;59.00;22.23;;;12.70;74.70;;;;;;5068124;28;20119;-79
2023/04/16 09:28:44;;;;;;;57.88;21.63;;;12.70;74.60;;;;;;5034293;28;20048;-77
2023/04/16 09:31:13;;;;;;;53.92;20.75;;;12.70;74.60;;;;;;5058225;28;20250;-78
2023/04/16 09:33:39;;;;;;;50.58;21.45;;;12.70;74.80;;;;;;5060890;28;20048;-78
2023/04/16 09:36:06;;;;;;;43.25;21.02;;;12.70;74.50;;;;;;5063742;28;20041;-74
2023/04/16 09:38:49;;;;;;;42.50;20.33;;;12.50;74.40;;;;;;5015184;28;20055;-77
2023/04/16 09:41:15;;;;;;;47.00;20.95;;;12.60;74.20;;;;;;5057850;28;20052;-75
2023/04/16 09:44:03;;;;;;;45.88;21.13;;;12.70;74.60;;;;;;5052282;28;20051;-78
2023/04/16 09:46:30;;;;;;;52.50;21.25;;;12.70;74.40;;;;;;5030805;28;20529;-78
2023/04/16 09:48:56;;;;;;;48.38;21.35;;;12.70;74.30;;;;;;5053208;28;20040;-78
2023/04/16 09:51:21;;;;;;;48.30;20.20;;;12.70;74.20;;;;;;5052072;28;20380;-77
2023/04/16 09:53:52;;;;;;;43.63;20.60;;;12.70;74.10;;;;;;5059164;28;20483;-78
2023/04/16 09:56:24;;;;;;;49.03;20.48;;;12.60;74.10;;;;;;5052742;28;20505;-78
2023/04/16 09:58:49;;;;;;;;;;;12.60;74.10;;;;;;5032847;28;20046;-76
2023/04/16 10:01:17;;;;;;;49.33;21.92;;;12.50;73.90;;;;;;5067991;28;20015;-77
2023/04/16 10:03:49;;;;;;;44.20;21.25;;;12.50;74.40;;;;;;5070049;28;20549;-78
2023/04/16 10:06:21;;;;;;;46.28;19.33;;;12.50;74.30;;;;;;5034906;28;20124;-76
2023/04/16 10:08:51;;;;;;;52.58;21.55;;;12.50;74.20;;;;;;5059468;28;20371;-78
2023/04/16 10:11:19;;;;;;;53.88;20.63;;;12.40;74.20;;;;;;5065512;28;20045;-77
2023/04/16 10:13:44;;;;;;;50.13;20.52;;;12.30;74.20;;;;;;5060165;28;20055;-78
2023/04/16 10:16:10;;;;;;;45.13;21.10;;;12.20;74.20;;;;;;5046953;28;20037;-78
2023/04/16 10:18:39;;;;;;;47.45;20.58;;;12.20;74.30;;;;;;5032605;28;20056;-77
2023/04/16 10:21:05;;;;;;;50.75;21.20;;;12.20;74.20;;;;;;5066980;28;20091;-77
2023/04/16 10:23:32;;;;;;;48.08;20.80;;;12.10;74.20;;;;;;5059613;28;20112;-78
2023/04/16 10:25:59;;;;;;;43.40;20.23;;;12.10;74.50;;;;;;5070378;28;20524;-77
2023/04/16 10:28:25;;;;;;;43.90;21.90;;;12.00;74.30;;;;;;5036953;28;20466;-78
2023/04/16 10:30:52;;;;;;;42.97;21.70;;;12.00;74.40;;;;;;5037782;28;20044;-77
2023/04/16 10:33:41;;;;;;;38.60;22.17;;;11.90;74.30;;;;;;5064823;28;20123;-75
2023/04/16 10:36:15;;;;;;;49.22;23.52;;;11.90;74.10;;;;;;5055504;28;20463;-74
2023/04/16 10:38:45;;;;;;;44.03;23.58;;;11.70;74.50;;;;;;5066685;28;20040;-77
2023/04/16 10:41:11;;;;;;;49.58;23.83;;;11.70;74.40;;;;;;5071745;28;20050;-76
2023/04/16 10:43:44;;;;;;;53.60;23.17;;;11.50;74.60;;;;;;5071292;28;20040;-77
2023/04/16 10:46:27;;;;;;;41.83;21.00;;;11.50;74.60;;;;;;5046243;28;20068;-76
2023/04/16 10:48:55;;;;;;;42.65;21.33;;;11.40;74.70;;;;;;5049133;28;20032;-77
2023/04/16 10:51:32;;;;;;;40.15;20.23;;;11.20;74.70;;;;;;5049023;28;20033;-77
2023/04/16 10:54:02;;;;;;;46.60;21.00;;;11.10;74.80;;;;;;5067773;28;20041;-77
2023/04/16 10:56:31;;;;;;;45.30;21.70;;;11.10;74.80;;;;;;5056899;28;20526;-76
2023/04/16 10:58:57;;;;;;;47.22;22.80;;;11.10;75.10;;;;;;5051152;28;20040;-77
2023/04/16 11:01:31;;;;;;;45.28;21.50;;;11.00;75.00;;;;;;5037917;28;20475;-77
2023/04/16 11:04:20;;;;;;;49.47;23.38;;;11.00;75.10;;;;;;5069929;28;20079;-76
2023/04/16 11:07:12;;;;;;;51.30;23.23;;;11.10;75.30;;;;;;5047915;28;20458;-77
2023/04/16 11:10:04;;;;;;;42.70;22.50;;;11.10;75.10;;;;;;5051199;28;20040;-77
2023/04/16 11:12:36;;;;;;;49.70;22.70;;;11.10;74.90;;;;;;5052407;28;20044;-77
2023/04/16 11:15:10;;;;;;;45.17;23.85;;;11.10;75.30;;;;;;5071326;28;20548;-78
2023/04/16 11:17:43;;;;;;;47.50;22.95;;;11.10;75.30;;;;;;5057368;28;20046;-77
2023/04/16 11:20:14;;;;;;;47.85;23.75;;;11.20;75.30;;;;;;5057625;28;20123;-77
2023/04/16 11:22:41;;;;;;;49.75;23.77;;;11.40;75.20;;;;;;5040095;28;20063;-76
2023/04/16 11:25:06;;;;;;;44.67;22.88;;;11.50;75.10;;;;;;5052555;28;20502;-77
2023/04/16 11:27:32;;;;;;;49.22;23.70;;;11.60;75.10;;;;;;5049212;28;20052;-78
2023/04/16 11:30:03;;;;;;;42.80;22.15;;;11.70;75.10;;;;;;5071082;28;20372;-77
2023/04/16 11:32:34;;;;;;;46.58;22.50;;;11.90;75.00;;;;;;5069721;28;20098;-76
2023/04/16 11:35:03;;;;;;;47.88;23.40;;;11.90;74.90;;;;;;5047580;28;20119;-77
2023/04/16 11:37:35;;;;;;;41.45;22.73;;;12.10;74.80;;;;;;5037339;28;20075;-77
2023/04/16 11:40:05;;;;;;;46.30;22.92;;;12.20;74.70;;;;;;5070731;28;20037;-77
2023/04/16 11:42:31;;;;;;;42.60;21.45;;;12.30;74.70;;;;;;5069711;28;20076;-77
2023/04/16 11:45:01;;;;;;;43.45;21.45;;;12.50;74.60;;;;;;5070441;28;20056;-77
2023/04/16 11:47:29;;;;;;;43.13;21.48;;;12.50;74.50;;;;;;5035060;28;20121;-77
2023/04/16 11:49:56;;;;;;;37.92;20.85;;;12.70;74.30;;;;;;5053080;28;20542;-77
2023/04/16 11:52:30;;;;;;;36.67;20.73;;;12.70;74.00;;;;;;5035749;28;20075;-76
2023/04/16 11:54:56;;;;;;;36.00;20.92;;;12.80;74.00;;;;;;5070923;28;20425;-77
2023/04/16 11:57:27;;;;;;;37.30;19.60;;;13.00;74.00;;;;;;5036328;28;20541;-77
2023/04/16 11:59:53;;;;;;;37.80;20.38;;;13.10;73.70;;;;;;5051782;28;20032;-77
2023/04/16 12:02:36;;;;;;;33.92;19.45;;;13.10;73.40;;;;;;5069459;28;20036;-76
2023/04/16 12:05:03;;;;;;;35.92;19.50;;;13.10;73.00;;;;;;5062144;28;20090;-77
2023/04/16 12:07:29;;;;;;;38.75;20.52;;;13.10;73.40;;;;;;5035809;28;20386;-78
2023/04/16 12:10:07;;;;;;;39.10;21.02;;;13.00;73.20;;;;;;5070627;28;20041;-77
2023/04/16 12:12:34;;;;;;;33.72;20.23;;;12.90;73.00;;;;;;5041409;28;20130;-78
2023/04/16 12:15:04;;;;;;;35.88;20.20;;;12.90;73.30;;;;;;5052606;28;20431;-77
2023/04/16 12:17:34;;;;;;;42.10;19.57;;;13.00;73.20;;;;;;5043096;28;20040;-77
2023/04/16 12:20:04;;;;;;;46.03;20.13;;;13.10;73.10;;;;;;5047027;28;20059;-76
2023/04/16 12:22:35;;;;;;;39.97;19.23;;;13.30;73.10;;;;;;5050035;28;20041;-77
2023/04/16 12:25:12;;;;;;;34.97;18.47;;;13.30;72.90;;;;;;5069746;28;20099;-77
2023/04/16 12:27:56;;;;;;;39.47;20.23;;;13.50;72.90;;;;;;5052952;28;20127;-78